sensor_id;sensor_type;location;lat;lon;timestamp;temperature;humidity
10662;DHT22;5379;51.034;7.006;2023-05-17T00:00:15;13.80;99.90
10662;DHT22;5379;51.034;7.006;2023-05-17T04:32:47;12.30;99.90
10662;DHT22;5379;51.034;7.006;2023-05-17T04:35:14;12.30;99.90
10662;DHT22;5379;51.034;7.006;2023-05-17T04:37:41;12.30;99.90
10662;DHT22;5379;51.034;7.006;2023-05-17T04:40:09;12.30;99.90
10662;DHT22;5379;51.034;7.006;2023-05-17T04:42:37;12.30;99.90
10662;DHT22;5379;51.034;7.006;2023-05-17T04:45:05;12.30;99.90
10662;DHT22;5379;51.034;7.006;2023-05-17T04:47:32;12.30;99.90
10662;DHT22;5379;51.034;7.006;2023-05-17T04:50:00;12.40;99.90
10662;DHT22;5379;51.034;7.006;2023-05-17T04:52:29;12.30;99.90
10662;DHT22;5379;51.034;7.006;2023-05-17T04:54:56;12.40;99.90
10662;DHT22;5379;51.034;7.006;2023-05-17T04:57:23;12.50;99.90
10662;DHT22;5379;51.034;7.006;2023-05-17T04:59:50;12.50;99.90
10662;DHT22;5379;51.034;7.006;2023-05-17T05:02:17;12.50;99.90
10662;DHT22;5379;51.034;7.006;2023-05-17T05:04:44;12.60;99.90
10662;DHT22;5379;51.034;7.006;2023-05-17T05:07:12;12.70;99.90
10662;DHT22;5379;51.034;7.006;2023-05-17T05:09:39;12.70;99.90
10662;DHT22;5379;51.034;7.006;2023-05-17T05:12:07;12.80;99.90
10662;DHT22;5379;51.034;7.006;2023-05-17T05:14:34;12.80;99.90
10662;DHT22;5379;51.034;7.006;2023-05-17T05:17:00;12.80;99.90
10662;DHT22;5379;51.034;7.006;2023-05-17T05:19:27;12.80;99.90
10662;DHT22;5379;51.034;7.006;2023-05-17T05:21:54;12.80;99.90
10662;DHT22;5379;51.034;7.006;2023-05-17T05:24:23;12.80;99.90
10662;DHT22;5379;51.034;7.006;2023-05-17T05:26:50;12.80;99.90
10662;DHT22;5379;51.034;7.006;2023-05-17T05:29:17;12.80;99.90
10662;DHT22;5379;51.034;7.006;2023-05-17T05:31:44;12.80;99.90
10662;DHT22;5379;51.034;7.006;2023-05-17T05:34:11;12.90;99.90
10662;DHT22;5379;51.034;7.006;2023-05-17T05:36:38;12.90;99.90
10662;DHT22;5379;51.034;7.006;2023-05-17T05:39:05;12.90;99.90
10662;DHT22;5379;51.034;7.006;2023-05-17T05:41:34;12.90;99.90
10662;DHT22;5379;51.034;7.006;2023-05-17T05:44:01;13.00;99.90
10662;DHT22;5379;51.034;7.006;2023-05-17T05:46:28;12.90;99.90
10662;DHT22;5379;51.034;7.006;2023-05-17T05:48:55;12.90;99.90
10662;DHT22;5379;51.034;7.006;2023-05-17T05:51:22;12.90;99.90
10662;DHT22;5379;51.034;7.006;2023-05-17T05:53:49;12.90;99.90
10662;DHT22;5379;51.034;7.006;2023-05-17T05:56:16;13.00;99.90
10662;DHT22;5379;51.034;7.006;2023-05-17T05:58:44;13.10;99.90
10662;DHT22;5379;51.034;7.006;2023-05-17T06:01:11;13.10;99.90
10662;DHT22;5379;51.034;7.006;2023-05-17T06:03:38;13.20;99.90
10662;DHT22;5379;51.034;7.006;2023-05-17T06:06:05;13.20;99.90
10662;DHT22;5379;51.034;7.006;2023-05-17T06:08:32;13.30;99.90
10662;DHT22;5379;51.034;7.006;2023-05-17T06:10:59;13.60;99.90
10662;DHT22;5379;51.034;7.006;2023-05-17T06:13:26;13.40;99.90
10662;DHT22;5379;51.034;7.006;2023-05-17T06:15:54;13.50;99.90
10662;DHT22;5379;51.034;7.006;2023-05-17T06:18:22;13.60;99.90
10662;DHT22;5379;51.034;7.006;2023-05-17T06:20:49;13.70;99.90
10662;DHT22;5379;51.034;7.006;2023-05-17T06:23:16;13.90;99.90
10662;DHT22;5379;51.034;7.006;2023-05-17T06:25:43;13.90;99.90
10662;DHT22;5379;51.034;7.006;2023-05-17T06:28:09;13.90;99.90
10662;DHT22;5379;51.034;7.006;2023-05-17T06:30:37;14.20;99.90
10662;DHT22;5379;51.034;7.006;2023-05-17T06:33:05;14.10;99.90
10662;DHT22;5379;51.034;7.006;2023-05-17T06:35:32;13.90;99.90
10662;DHT22;5379;51.034;7.006;2023-05-17T06:37:59;13.90;99.90
10662;DHT22;5379;51.034;7.006;2023-05-17T06:40:26;14.00;99.90
10662;DHT22;5379;51.034;7.006;2023-05-17T06:42:53;13.90;99.90
10662;DHT22;5379;51.034;7.006;2023-05-17T06:45:19;13.90;99.90
10662;DHT22;5379;51.034;7.006;2023-05-17T06:47:47;13.90;99.90
10662;DHT22;5379;51.034;7.006;2023-05-17T06:50:15;14.10;99.90
10662;DHT22;5379;51.034;7.006;2023-05-17T06:52:42;14.40;99.90
10662;DHT22;5379;51.034;7.006;2023-05-17T06:55:09;14.50;99.90
10662;DHT22;5379;51.034;7.006;2023-05-17T06:57:36;14.20;99.90
10662;DHT22;5379;51.034;7.006;2023-05-17T07:00:04;14.10;99.90
10662;DHT22;5379;51.034;7.006;2023-05-17T07:02:35;14.30;99.90
10662;DHT22;5379;51.034;7.006;2023-05-17T07:05:03;14.40;99.90
10662;DHT22;5379;51.034;7.006;2023-05-17T07:07:32;14.60;99.90
10662;DHT22;5379;51.034;7.006;2023-05-17T07:09:59;14.30;99.90
10662;DHT22;5379;51.034;7.006;2023-05-17T07:12:26;14.50;99.90
10662;DHT22;5379;51.034;7.006;2023-05-17T07:14:53;14.60;99.90
10662;DHT22;5379;51.034;7.006;2023-05-17T07:17:19;14.70;99.90
10662;DHT22;5379;51.034;7.006;2023-05-17T07:19:46;14.80;99.90
10662;DHT22;5379;51.034;7.006;2023-05-17T07:22:15;14.90;99.90
10662;DHT22;5379;51.034;7.006;2023-05-17T07:24:44;15.00;99.70
10662;DHT22;5379;51.034;7.006;2023-05-17T07:27:11;15.20;99.70
10662;DHT22;5379;51.034;7.006;2023-05-17T07:29:38;15.20;99.40
10662;DHT22;5379;51.034;7.006;2023-05-17T07:32:06;15.00;99.20
10662;DHT22;5379;51.034;7.006;2023-05-17T07:34:34;15.40;99.90
10662;DHT22;5379;51.034;7.006;2023-05-17T07:37:01;15.40;98.40
10662;DHT22;5379;51.034;7.006;2023-05-17T07:39:28;15.50;99.60
10662;DHT22;5379;51.034;7.006;2023-05-17T07:41:57;15.80;97.50
10662;DHT22;5379;51.034;7.006;2023-05-17T07:44:24;16.00;97.60
10662;DHT22;5379;51.034;7.006;2023-05-17T07:46:50;15.60;97.10
10662;DHT22;5379;51.034;7.006;2023-05-17T07:49:17;16.10;97.30
10662;DHT22;5379;51.034;7.006;2023-05-17T07:51:44;15.80;96.40
10662;DHT22;5379;51.034;7.006;2023-05-17T07:54:21;15.50;96.40
10662;DHT22;5379;51.034;7.006;2023-05-17T07:56:49;15.30;96.20
10662;DHT22;5379;51.034;7.006;2023-05-17T07:59:19;14.90;96.10
10662;DHT22;5379;51.034;7.006;2023-05-17T08:01:46;14.60;96.90
10662;DHT22;5379;51.034;7.006;2023-05-17T08:04:13;14.70;98.00
10662;DHT22;5379;51.034;7.006;2023-05-17T08:06:41;14.90;96.80
10662;DHT22;5379;51.034;7.006;2023-05-17T08:09:10;15.50;96.20
10662;DHT22;5379;51.034;7.006;2023-05-17T08:11:37;15.50;95.10
10662;DHT22;5379;51.034;7.006;2023-05-17T08:14:10;15.50;95.50
10662;DHT22;5379;51.034;7.006;2023-05-17T08:16:39;15.60;95.20
10662;DHT22;5379;51.034;7.006;2023-05-17T08:19:06;15.80;96.10
10662;DHT22;5379;51.034;7.006;2023-05-17T08:21:33;15.70;94.20
10662;DHT22;5379;51.034;7.006;2023-05-17T08:24:01;15.40;95.10
10662;DHT22;5379;51.034;7.006;2023-05-17T08:26:28;15.70;95.50
10662;DHT22;5379;51.034;7.006;2023-05-17T08:28:55;15.90;95.30
10662;DHT22;5379;51.034;7.006;2023-05-17T08:31:22;15.60;94.50
10662;DHT22;5379;51.034;7.006;2023-05-17T08:33:50;15.60;94.40
10662;DHT22;5379;51.034;7.006;2023-05-17T08:36:18;16.00;94.60
10662;DHT22;5379;51.034;7.006;2023-05-17T08:38:45;16.80;94.70
10662;DHT22;5379;51.034;7.006;2023-05-17T08:41:12;17.80;96.30
10662;DHT22;5379;51.034;7.006;2023-05-17T08:43:39;17.20;93.40
10662;DHT22;5379;51.034;7.006;2023-05-17T08:46:08;17.30;94.80
10662;DHT22;5379;51.034;7.006;2023-05-17T08:48:36;17.50;94.70
10662;DHT22;5379;51.034;7.006;2023-05-17T08:51:08;17.70;93.50
10662;DHT22;5379;51.034;7.006;2023-05-17T08:53:36;17.00;94.00
10662;DHT22;5379;51.034;7.006;2023-05-17T08:56:04;17.60;96.20
10662;DHT22;5379;51.034;7.006;2023-05-17T08:58:33;17.90;95.80
10662;DHT22;5379;51.034;7.006;2023-05-17T09:01:02;18.40;95.20
10662;DHT22;5379;51.034;7.006;2023-05-17T09:03:32;17.60;92.90
10662;DHT22;5379;51.034;7.006;2023-05-17T09:06:00;17.70;93.80
10662;DHT22;5379;51.034;7.006;2023-05-17T09:08:30;17.70;93.50
10662;DHT22;5379;51.034;7.006;2023-05-17T09:10:57;17.70;92.60
10662;DHT22;5379;51.034;7.006;2023-05-17T09:13:25;17.30;92.10
10662;DHT22;5379;51.034;7.006;2023-05-17T09:15:52;17.90;92.50
10662;DHT22;5379;51.034;7.006;2023-05-17T09:18:28;17.60;91.50
10662;DHT22;5379;51.034;7.006;2023-05-17T09:21:01;16.90;92.40
10662;DHT22;5379;51.034;7.006;2023-05-17T09:23:31;16.20;93.00
10662;DHT22;5379;51.034;7.006;2023-05-17T09:26:05;16.10;93.30
10662;DHT22;5379;51.034;7.006;2023-05-17T09:28:38;16.40;93.30
10662;DHT22;5379;51.034;7.006;2023-05-17T09:31:07;17.00;93.20
10662;DHT22;5379;51.034;7.006;2023-05-17T09:33:34;16.80;91.70
10662;DHT22;5379;51.034;7.006;2023-05-17T09:36:14;16.60;93.50
10662;DHT22;5379;51.034;7.006;2023-05-17T09:38:51;17.00;92.40
10662;DHT22;5379;51.034;7.006;2023-05-17T09:41:19;17.60;96.30
10662;DHT22;5379;51.034;7.006;2023-05-17T09:43:46;17.30;92.90
10662;DHT22;5379;51.034;7.006;2023-05-17T09:46:13;17.70;91.80
10662;DHT22;5379;51.034;7.006;2023-05-17T09:48:41;18.10;95.40
10662;DHT22;5379;51.034;7.006;2023-05-17T09:51:12;18.20;94.70
10662;DHT22;5379;51.034;7.006;2023-05-17T09:53:39;18.40;91.40
10662;DHT22;5379;51.034;7.006;2023-05-17T09:56:09;17.80;90.80
10662;DHT22;5379;51.034;7.006;2023-05-17T09:58:36;17.60;92.50
10662;DHT22;5379;51.034;7.006;2023-05-17T10:01:05;17.30;93.10
10662;DHT22;5379;51.034;7.006;2023-05-17T10:03:34;17.30;94.20
10662;DHT22;5379;51.034;7.006;2023-05-17T10:06:04;18.20;93.20
10662;DHT22;5379;51.034;7.006;2023-05-17T10:08:32;18.80;92.50
10662;DHT22;5379;51.034;7.006;2023-05-17T10:11:02;18.10;90.80
10662;DHT22;5379;51.034;7.006;2023-05-17T10:13:36;17.10;91.30
10662;DHT22;5379;51.034;7.006;2023-05-17T10:16:06;17.20;93.60
10662;DHT22;5379;51.034;7.006;2023-05-17T10:18:33;17.90;91.20
10662;DHT22;5379;51.034;7.006;2023-05-17T10:21:01;18.10;94.60
10662;DHT22;5379;51.034;7.006;2023-05-17T10:23:29;18.00;94.80
10662;DHT22;5379;51.034;7.006;2023-05-17T10:25:58;18.40;90.90
10662;DHT22;5379;51.034;7.006;2023-05-17T10:28:26;17.90;90.20
10662;DHT22;5379;51.034;7.006;2023-05-17T10:30:54;17.70;90.40
10662;DHT22;5379;51.034;7.006;2023-05-17T10:33:23;17.90;90.40
10662;DHT22;5379;51.034;7.006;2023-05-17T10:35:53;18.90;96.30
10662;DHT22;5379;51.034;7.006;2023-05-17T10:38:21;19.20;91.20
10662;DHT22;5379;51.034;7.006;2023-05-17T10:40:49;18.60;90.40
10662;DHT22;5379;51.034;7.006;2023-05-17T10:43:18;19.10;93.60
10662;DHT22;5379;51.034;7.006;2023-05-17T10:45:45;19.40;94.10
10662;DHT22;5379;51.034;7.006;2023-05-17T10:48:14;19.50;90.30
10662;DHT22;5379;51.034;7.006;2023-05-17T10:50:45;18.40;87.80
10662;DHT22;5379;51.034;7.006;2023-05-17T10:53:12;18.40;91.50
10662;DHT22;5379;51.034;7.006;2023-05-17T10:55:40;19.60;92.50
10662;DHT22;5379;51.034;7.006;2023-05-17T10:58:13;18.60;91.50
10662;DHT22;5379;51.034;7.006;2023-05-17T11:00:45;17.60;91.10
10662;DHT22;5379;51.034;7.006;2023-05-17T11:03:18;17.70;93.60
10662;DHT22;5379;51.034;7.006;2023-05-17T11:06:13;17.50;91.00
10662;DHT22;5379;51.034;7.006;2023-05-17T11:08:43;17.50;91.70
10662;DHT22;5379;51.034;7.006;2023-05-17T11:11:15;17.30;90.50
10662;DHT22;5379;51.034;7.006;2023-05-17T11:13:44;17.40;94.00
10662;DHT22;5379;51.034;7.006;2023-05-17T11:16:14;18.80;99.70
10662;DHT22;5379;51.034;7.006;2023-05-17T11:18:48;18.70;91.40
10662;DHT22;5379;51.034;7.006;2023-05-17T11:21:15;17.50;90.90
10662;DHT22;5379;51.034;7.006;2023-05-17T11:23:43;17.60;91.80
10662;DHT22;5379;51.034;7.006;2023-05-17T11:26:20;18.20;92.80
10662;DHT22;5379;51.034;7.006;2023-05-17T11:28:47;19.10;97.00
10662;DHT22;5379;51.034;7.006;2023-05-17T11:31:14;18.50;90.50
10662;DHT22;5379;51.034;7.006;2023-05-17T11:33:43;18.80;90.40
10662;DHT22;5379;51.034;7.006;2023-05-17T11:36:21;19.30;95.10
10662;DHT22;5379;51.034;7.006;2023-05-17T11:38:49;18.20;90.40
10662;DHT22;5379;51.034;7.006;2023-05-17T11:41:18;17.80;90.40
10662;DHT22;5379;51.034;7.006;2023-05-17T11:43:46;17.80;90.80
10662;DHT22;5379;51.034;7.006;2023-05-17T11:46:20;17.90;92.70
10662;DHT22;5379;51.034;7.006;2023-05-17T11:48:49;18.60;92.20
10662;DHT22;5379;51.034;7.006;2023-05-17T11:51:18;19.50;92.40
10662;DHT22;5379;51.034;7.006;2023-05-17T11:53:45;19.70;91.50
10662;DHT22;5379;51.034;7.006;2023-05-17T11:56:13;19.90;90.10
10662;DHT22;5379;51.034;7.006;2023-05-17T11:58:42;19.00;90.40
10662;DHT22;5379;51.034;7.006;2023-05-17T12:01:10;19.10;92.20
10662;DHT22;5379;51.034;7.006;2023-05-17T12:03:36;18.80;88.40
10662;DHT22;5379;51.034;7.006;2023-05-17T12:06:05;18.70;88.70
10662;DHT22;5379;51.034;7.006;2023-05-17T12:08:37;18.60;90.30
10662;DHT22;5379;51.034;7.006;2023-05-17T12:11:05;18.60;88.60
10662;DHT22;5379;51.034;7.006;2023-05-17T12:13:34;18.80;90.40
10662;DHT22;5379;51.034;7.006;2023-05-17T12:16:02;19.00;90.30
10662;DHT22;5379;51.034;7.006;2023-05-17T12:18:36;20.00;95.60
10662;DHT22;5379;51.034;7.006;2023-05-17T12:21:04;19.80;88.80
10662;DHT22;5379;51.034;7.006;2023-05-17T12:23:33;18.60;90.00
10662;DHT22;5379;51.034;7.006;2023-05-17T12:26:06;18.20;86.00
10662;DHT22;5379;51.034;7.006;2023-05-17T12:28:34;18.30;87.60
10662;DHT22;5379;51.034;7.006;2023-05-17T12:31:03;18.10;92.90
10662;DHT22;5379;51.034;7.006;2023-05-17T12:33:31;18.70;91.20
10662;DHT22;5379;51.034;7.006;2023-05-17T12:36:00;19.40;96.70
10662;DHT22;5379;51.034;7.006;2023-05-17T12:38:28;19.30;90.20
10662;DHT22;5379;51.034;7.006;2023-05-17T12:40:57;19.20;90.60
10662;DHT22;5379;51.034;7.006;2023-05-17T12:43:26;19.10;91.50
10662;DHT22;5379;51.034;7.006;2023-05-17T12:45:56;18.90;91.80
10662;DHT22;5379;51.034;7.006;2023-05-17T12:48:27;19.50;89.60
10662;DHT22;5379;51.034;7.006;2023-05-17T12:50:54;19.40;86.90
10662;DHT22;5379;51.034;7.006;2023-05-17T12:53:21;19.40;86.50
10662;DHT22;5379;51.034;7.006;2023-05-17T12:55:51;18.80;88.00
10662;DHT22;5379;51.034;7.006;2023-05-17T12:58:22;18.50;90.00
10662;DHT22;5379;51.034;7.006;2023-05-17T13:00:58;19.20;90.10
10662;DHT22;5379;51.034;7.006;2023-05-17T13:03:25;19.30;88.10
10662;DHT22;5379;51.034;7.006;2023-05-17T13:06:03;18.80;87.60
10662;DHT22;5379;51.034;7.006;2023-05-17T13:08:30;18.40;89.00
10662;DHT22;5379;51.034;7.006;2023-05-17T13:11:08;18.40;93.10
10662;DHT22;5379;51.034;7.006;2023-05-17T13:13:37;18.50;90.00
10662;DHT22;5379;51.034;7.006;2023-05-17T13:16:05;18.80;91.90
10662;DHT22;5379;51.034;7.006;2023-05-17T13:18:49;19.20;87.40
10662;DHT22;5379;51.034;7.006;2023-05-17T13:21:17;19.70;95.40
10662;DHT22;5379;51.034;7.006;2023-05-17T13:23:46;20.00;86.40
10662;DHT22;5379;51.034;7.006;2023-05-17T13:26:13;18.80;86.50
10662;DHT22;5379;51.034;7.006;2023-05-17T13:28:40;17.90;89.60
10662;DHT22;5379;51.034;7.006;2023-05-17T13:31:09;18.20;88.80
10662;DHT22;5379;51.034;7.006;2023-05-17T13:33:37;19.30;90.80
10662;DHT22;5379;51.034;7.006;2023-05-17T13:36:04;19.10;87.20
10662;DHT22;5379;51.034;7.006;2023-05-17T13:38:32;18.70;89.20
10662;DHT22;5379;51.034;7.006;2023-05-17T13:40:59;18.60;85.40
10662;DHT22;5379;51.034;7.006;2023-05-17T13:43:26;18.70;86.10
10662;DHT22;5379;51.034;7.006;2023-05-17T13:45:53;19.00;85.10
10662;DHT22;5379;51.034;7.006;2023-05-17T13:48:24;19.40;85.70
10662;DHT22;5379;51.034;7.006;2023-05-17T13:50:51;19.00;86.60
10662;DHT22;5379;51.034;7.006;2023-05-17T13:53:18;18.90;89.60
10662;DHT22;5379;51.034;7.006;2023-05-17T13:55:45;19.80;91.00
10662;DHT22;5379;51.034;7.006;2023-05-17T13:58:12;20.20;96.40
10662;DHT22;5379;51.034;7.006;2023-05-17T14:00:41;20.20;87.00
10662;DHT22;5379;51.034;7.006;2023-05-17T14:03:10;20.40;95.10
10662;DHT22;5379;51.034;7.006;2023-05-17T14:05:39;19.50;85.50
10662;DHT22;5379;51.034;7.006;2023-05-17T14:08:06;19.20;84.70
10662;DHT22;5379;51.034;7.006;2023-05-17T14:10:34;18.70;84.80
10662;DHT22;5379;51.034;7.006;2023-05-17T14:13:01;19.70;95.10
10662;DHT22;5379;51.034;7.006;2023-05-17T14:15:28;19.60;82.70
10662;DHT22;5379;51.034;7.006;2023-05-17T14:17:55;20.50;92.70
10662;DHT22;5379;51.034;7.006;2023-05-17T14:20:22;20.90;94.80
10662;DHT22;5379;51.034;7.006;2023-05-17T14:22:51;20.80;88.40
10662;DHT22;5379;51.034;7.006;2023-05-17T14:25:18;21.30;92.20
10662;DHT22;5379;51.034;7.006;2023-05-17T14:27:45;21.00;85.00
10662;DHT22;5379;51.034;7.006;2023-05-17T14:30:24;21.60;94.60
10662;DHT22;5379;51.034;7.006;2023-05-17T14:32:52;19.80;86.00
10662;DHT22;5379;51.034;7.006;2023-05-17T14:35:19;19.80;86.50
10662;DHT22;5379;51.034;7.006;2023-05-17T14:37:46;20.70;93.10
10662;DHT22;5379;51.034;7.006;2023-05-17T14:40:14;20.90;87.00
10662;DHT22;5379;51.034;7.006;2023-05-17T14:42:41;20.70;93.40
10662;DHT22;5379;51.034;7.006;2023-05-17T14:45:08;21.20;94.60
10662;DHT22;5379;51.034;7.006;2023-05-17T14:47:35;21.10;85.10
10662;DHT22;5379;51.034;7.006;2023-05-17T14:50:02;20.00;89.50
10662;DHT22;5379;51.034;7.006;2023-05-17T14:52:29;20.30;85.00
10662;DHT22;5379;51.034;7.006;2023-05-17T14:54:56;20.80;92.80
10662;DHT22;5379;51.034;7.006;2023-05-17T14:57:25;21.10;92.00
10662;DHT22;5379;51.034;7.006;2023-05-17T14:59:52;21.20;91.10
10662;DHT22;5379;51.034;7.006;2023-05-17T15:02:19;20.70;92.90
10662;DHT22;5379;51.034;7.006;2023-05-17T15:04:46;19.80;86.00
10662;DHT22;5379;51.034;7.006;2023-05-17T15:07:13;19.40;86.70
10662;DHT22;5379;51.034;7.006;2023-05-17T15:09:41;19.60;83.50
10662;DHT22;5379;51.034;7.006;2023-05-17T15:12:09;19.30;87.70
10662;DHT22;5379;51.034;7.006;2023-05-17T15:14:38;20.50;90.70
10662;DHT22;5379;51.034;7.006;2023-05-17T15:17:05;19.00;83.90
10662;DHT22;5379;51.034;7.006;2023-05-17T15:19:32;19.10;84.60
10662;DHT22;5379;51.034;7.006;2023-05-17T15:21:59;19.20;87.10
10662;DHT22;5379;51.034;7.006;2023-05-17T15:24:27;19.70;86.50
10662;DHT22;5379;51.034;7.006;2023-05-17T15:26:54;19.30;86.20
10662;DHT22;5379;51.034;7.006;2023-05-17T15:29:21;19.90;87.10
10662;DHT22;5379;51.034;7.006;2023-05-17T15:31:50;20.10;87.70
10662;DHT22;5379;51.034;7.006;2023-05-17T15:34:17;19.80;84.50
10662;DHT22;5379;51.034;7.006;2023-05-17T15:36:44;20.30;93.10
10662;DHT22;5379;51.034;7.006;2023-05-17T15:39:11;20.80;87.20
10662;DHT22;5379;51.034;7.006;2023-05-17T15:41:38;19.60;86.60
10662;DHT22;5379;51.034;7.006;2023-05-17T15:44:05;19.60;87.20
10662;DHT22;5379;51.034;7.006;2023-05-17T15:46:33;19.40;86.00
10662;DHT22;5379;51.034;7.006;2023-05-17T15:49:02;19.10;85.70
10662;DHT22;5379;51.034;7.006;2023-05-17T15:51:28;19.40;86.40
10662;DHT22;5379;51.034;7.006;2023-05-17T15:53:56;19.70;87.30
10662;DHT22;5379;51.034;7.006;2023-05-17T15:56:23;20.30;92.70
10662;DHT22;5379;51.034;7.006;2023-05-17T15:58:50;19.90;83.40
10662;DHT22;5379;51.034;7.006;2023-05-17T16:01:17;19.30;83.70
10662;DHT22;5379;51.034;7.006;2023-05-17T16:03:44;19.80;90.50
10662;DHT22;5379;51.034;7.006;2023-05-17T16:06:13;20.50;91.50
10662;DHT22;5379;51.034;7.006;2023-05-17T16:08:40;20.70;85.40
10662;DHT22;5379;51.034;7.006;2023-05-17T16:11:07;20.70;82.40
10662;DHT22;5379;51.034;7.006;2023-05-17T16:13:34;20.60;91.20
10662;DHT22;5379;51.034;7.006;2023-05-17T16:16:01;21.40;94.80
10662;DHT22;5379;51.034;7.006;2023-05-17T16:18:28;21.50;93.00
10662;DHT22;5379;51.034;7.006;2023-05-17T16:20:57;21.30;84.20
10662;DHT22;5379;51.034;7.006;2023-05-17T16:23:26;20.80;83.80
10662;DHT22;5379;51.034;7.006;2023-05-17T16:25:53;20.40;83.60
10662;DHT22;5379;51.034;7.006;2023-05-17T16:28:21;20.90;87.00
10662;DHT22;5379;51.034;7.006;2023-05-17T16:30:48;21.30;92.30
10662;DHT22;5379;51.034;7.006;2023-05-17T16:33:16;21.60;88.80
10662;DHT22;5379;51.034;7.006;2023-05-17T16:35:45;20.50;83.30
10662;DHT22;5379;51.034;7.006;2023-05-17T16:38:12;21.00;90.90
10662;DHT22;5379;51.034;7.006;2023-05-17T16:40:41;21.70;94.10
10662;DHT22;5379;51.034;7.006;2023-05-17T16:43:08;21.60;83.30
10662;DHT22;5379;51.034;7.006;2023-05-17T16:45:40;20.70;83.90
10662;DHT22;5379;51.034;7.006;2023-05-17T16:48:07;20.40;84.00
10662;DHT22;5379;51.034;7.006;2023-05-17T16:50:34;20.10;82.70
10662;DHT22;5379;51.034;7.006;2023-05-17T16:53:01;20.10;83.40
10662;DHT22;5379;51.034;7.006;2023-05-17T16:55:28;19.50;83.80
10662;DHT22;5379;51.034;7.006;2023-05-17T16:57:56;19.00;83.80
10662;DHT22;5379;51.034;7.006;2023-05-17T17:00:23;19.20;85.50
10662;DHT22;5379;51.034;7.006;2023-05-17T17:02:51;19.10;84.80
10662;DHT22;5379;51.034;7.006;2023-05-17T17:05:18;18.90;85.30
10662;DHT22;5379;51.034;7.006;2023-05-17T17:07:45;19.10;83.90
10662;DHT22;5379;51.034;7.006;2023-05-17T17:10:12;19.50;85.50
10662;DHT22;5379;51.034;7.006;2023-05-17T17:12:39;20.00;84.20
10662;DHT22;5379;51.034;7.006;2023-05-17T17:15:09;20.20;84.80
10662;DHT22;5379;51.034;7.006;2023-05-17T17:17:36;20.30;88.40
10662;DHT22;5379;51.034;7.006;2023-05-17T17:20:03;19.90;83.30
10662;DHT22;5379;51.034;7.006;2023-05-17T17:22:31;19.50;84.40
10662;DHT22;5379;51.034;7.006;2023-05-17T17:24:58;19.40;84.60
10662;DHT22;5379;51.034;7.006;2023-05-17T17:27:24;19.20;84.70
10662;DHT22;5379;51.034;7.006;2023-05-17T17:29:51;19.10;86.40
10662;DHT22;5379;51.034;7.006;2023-05-17T17:32:21;19.70;87.70
10662;DHT22;5379;51.034;7.006;2023-05-17T17:34:48;19.50;85.70
10662;DHT22;5379;51.034;7.006;2023-05-17T17:37:15;19.40;86.40
10662;DHT22;5379;51.034;7.006;2023-05-17T17:39:42;19.20;84.10
10662;DHT22;5379;51.034;7.006;2023-05-17T17:42:09;18.80;84.20
10662;DHT22;5379;51.034;7.006;2023-05-17T17:44:36;19.00;86.30
10662;DHT22;5379;51.034;7.006;2023-05-17T17:47:03;19.10;84.20
10662;DHT22;5379;51.034;7.006;2023-05-17T17:49:32;19.10;84.40
10662;DHT22;5379;51.034;7.006;2023-05-17T17:52:00;19.10;86.10
10662;DHT22;5379;51.034;7.006;2023-05-17T17:54:27;19.10;85.70
10662;DHT22;5379;51.034;7.006;2023-05-17T17:56:55;18.50;86.10
10662;DHT22;5379;51.034;7.006;2023-05-17T17:59:22;18.70;86.80
10662;DHT22;5379;51.034;7.006;2023-05-17T18:01:49;18.40;85.50
10662;DHT22;5379;51.034;7.006;2023-05-17T18:04:15;18.50;86.10
10662;DHT22;5379;51.034;7.006;2023-05-17T18:06:44;18.50;86.50
10662;DHT22;5379;51.034;7.006;2023-05-17T18:09:11;18.50;86.10
10662;DHT22;5379;51.034;7.006;2023-05-17T18:11:38;18.50;87.10
10662;DHT22;5379;51.034;7.006;2023-05-17T18:14:05;18.30;86.70
10662;DHT22;5379;51.034;7.006;2023-05-17T18:16:42;18.40;86.20
10662;DHT22;5379;51.034;7.006;2023-05-17T18:19:10;18.30;86.20
10662;DHT22;5379;51.034;7.006;2023-05-17T18:21:37;18.30;86.90
10662;DHT22;5379;51.034;7.006;2023-05-17T18:24:06;18.20;87.40
10662;DHT22;5379;51.034;7.006;2023-05-17T18:26:33;18.20;88.00
10662;DHT22;5379;51.034;7.006;2023-05-17T18:29:00;18.10;88.00
10662;DHT22;5379;51.034;7.006;2023-05-17T18:31:28;18.20;88.70
10662;DHT22;5379;51.034;7.006;2023-05-17T18:33:56;18.00;88.50
10662;DHT22;5379;51.034;7.006;2023-05-17T18:36:23;18.00;89.70
10662;DHT22;5379;51.034;7.006;2023-05-17T18:38:50;18.20;88.60
10662;DHT22;5379;51.034;7.006;2023-05-17T18:41:18;17.90;89.20
10662;DHT22;5379;51.034;7.006;2023-05-17T18:43:45;17.80;90.00
10662;DHT22;5379;51.034;7.006;2023-05-17T18:46:12;17.60;89.60
10662;DHT22;5379;51.034;7.006;2023-05-17T18:48:40;17.50;90.00
10662;DHT22;5379;51.034;7.006;2023-05-17T18:51:07;17.50;90.20
10662;DHT22;5379;51.034;7.006;2023-05-17T18:53:34;17.40;90.40
10662;DHT22;5379;51.034;7.006;2023-05-17T18:56:01;17.40;90.30
10662;DHT22;5379;51.034;7.006;2023-05-17T18:58:29;17.30;89.80
10662;DHT22;5379;51.034;7.006;2023-05-17T19:00:56;17.10;90.40
10662;DHT22;5379;51.034;7.006;2023-05-17T19:03:24;17.20;90.20
10662;DHT22;5379;51.034;7.006;2023-05-17T19:05:51;17.40;90.60
10662;DHT22;5379;51.034;7.006;2023-05-17T19:08:19;17.30;90.40
10662;DHT22;5379;51.034;7.006;2023-05-17T19:10:46;17.00;90.30
10662;DHT22;5379;51.034;7.006;2023-05-17T19:13:13;17.00;90.60
10662;DHT22;5379;51.034;7.006;2023-05-17T19:15:41;17.10;90.60
10662;DHT22;5379;51.034;7.006;2023-05-17T19:18:08;17.50;90.60
10662;DHT22;5379;51.034;7.006;2023-05-17T19:20:35;17.70;90.00
10662;DHT22;5379;51.034;7.006;2023-05-17T19:23:02;17.70;90.40
10662;DHT22;5379;51.034;7.006;2023-05-17T19:25:29;17.50;90.50
10662;DHT22;5379;51.034;7.006;2023-05-17T19:27:56;17.30;90.30
10662;DHT22;5379;51.034;7.006;2023-05-17T19:30:23;17.20;90.80
10662;DHT22;5379;51.034;7.006;2023-05-17T19:32:52;17.10;90.60
10662;DHT22;5379;51.034;7.006;2023-05-17T19:35:18;17.00;90.90
10662;DHT22;5379;51.034;7.006;2023-05-17T19:37:45;16.90;91.00
10662;DHT22;5379;51.034;7.006;2023-05-17T19:40:13;16.90;90.70
10662;DHT22;5379;51.034;7.006;2023-05-17T19:42:43;17.00;90.60
10662;DHT22;5379;51.034;7.006;2023-05-17T19:45:10;17.30;90.70
10662;DHT22;5379;51.034;7.006;2023-05-17T19:47:37;16.90;90.40
10662;DHT22;5379;51.034;7.006;2023-05-17T19:50:06;16.80;91.10
10662;DHT22;5379;51.034;7.006;2023-05-17T19:52:34;16.80;91.10
10662;DHT22;5379;51.034;7.006;2023-05-17T19:55:01;16.80;91.40
10662;DHT22;5379;51.034;7.006;2023-05-17T19:57:28;16.70;91.30
10662;DHT22;5379;51.034;7.006;2023-05-17T19:59:56;16.60;91.20
10662;DHT22;5379;51.034;7.006;2023-05-17T20:02:23;16.50;91.50
10662;DHT22;5379;51.034;7.006;2023-05-17T20:04:50;16.40;91.50
10662;DHT22;5379;51.034;7.006;2023-05-17T20:07:18;16.40;91.70
10662;DHT22;5379;51.034;7.006;2023-05-17T20:09:50;16.60;91.60
10662;DHT22;5379;51.034;7.006;2023-05-17T20:12:17;16.40;91.70
10662;DHT22;5379;51.034;7.006;2023-05-17T20:14:44;16.30;91.80
10662;DHT22;5379;51.034;7.006;2023-05-17T20:17:11;16.30;92.00
10662;DHT22;5379;51.034;7.006;2023-05-17T20:19:38;16.10;92.00